createdAt,value
2023-03-04T00:01:27.785Z,104.87
2023-03-04T00:03:55.067Z,108.70
2023-03-04T00:06:22.410Z,101.87
2023-03-04T00:08:49.744Z,103.97
2023-03-04T00:11:17.128Z,104.33
2023-03-04T00:13:44.568Z,105.80
2023-03-04T00:16:11.915Z,95.50
2023-03-04T00:18:39.244Z,134.60
2023-03-04T00:21:06.604Z,107.53
2023-03-04T00:23:33.998Z,112.00
2023-03-04T00:26:01.341Z,107.93
2023-03-04T00:28:28.700Z,112.80
2023-03-04T00:30:56.031Z,125.53
2023-03-04T00:33:23.417Z,108.97
2023-03-04T00:35:51.052Z,92.63
2023-03-04T00:38:18.394Z,106.10
2023-03-04T00:40:45.835Z,113.43
2023-03-04T00:43:14.169Z,101.43
2023-03-04T00:45:41.540Z,100.27
2023-03-04T00:48:08.934Z,98.67
2023-03-04T00:50:37.312Z,84.07
2023-03-04T00:53:05.250Z,92.40
2023-03-04T00:55:32.633Z,94.63
2023-03-04T00:57:59.914Z,92.73
2023-03-04T01:00:27.303Z,93.50
2023-03-04T01:02:54.571Z,101.00
2023-03-04T01:05:21.919Z,93.50
2023-03-04T01:07:49.422Z,90.03
2023-03-04T01:10:16.861Z,93.67
2023-03-04T01:12:44.207Z,103.17
2023-03-04T01:15:12.672Z,88.37
2023-03-04T01:17:40.165Z,94.87
2023-03-04T01:20:08.394Z,99.73
2023-03-04T01:22:35.736Z,90.63
2023-03-04T01:25:03.498Z,99.70
2023-03-04T01:27:30.807Z,94.17
2023-03-04T01:29:58.065Z,95.70
2023-03-04T01:32:25.518Z,95.47
2023-03-04T01:34:52.905Z,103.90
2023-03-04T01:37:20.221Z,88.63
2023-03-04T01:39:47.579Z,72.63
2023-03-04T01:42:19.078Z,89.97
2023-03-04T01:44:46.690Z,82.50
2023-03-04T01:47:14.021Z,78.03
2023-03-04T01:49:41.658Z,78.73
2023-03-04T01:52:13.745Z,86.90
2023-03-04T01:54:41.687Z,81.17
2023-03-04T01:57:19.390Z,71.30
2023-03-04T01:59:47.176Z,80.07
2023-03-04T02:02:14.993Z,81.10
2023-03-04T02:04:43.025Z,67.63
2023-03-04T02:07:10.539Z,84.57
2023-03-04T02:09:38.048Z,72.77
2023-03-04T02:12:05.468Z,74.17
2023-03-04T02:14:32.981Z,75.90
2023-03-04T02:17:00.313Z,79.20
2023-03-04T02:19:40.952Z,85.90
2023-03-04T02:22:08.287Z,80.20
2023-03-04T02:24:37.157Z,83.53
2023-03-04T02:27:04.490Z,80.83
2023-03-04T02:29:31.903Z,74.30
2023-03-04T02:31:59.289Z,71.57
2023-03-04T02:34:30.871Z,70.27
2023-03-04T02:36:58.262Z,65.40
2023-03-04T02:39:30.279Z,63.87
2023-03-04T02:41:57.795Z,73.93
2023-03-04T02:44:32.271Z,68.03
2023-03-04T02:46:59.610Z,69.87
2023-03-04T02:49:27.995Z,61.57
2023-03-04T02:52:02.781Z,62.63
2023-03-04T02:54:30.506Z,63.43
2023-03-04T02:56:59.382Z,57.10
2023-03-04T02:59:27.034Z,62.20
2023-03-04T03:01:54.610Z,66.00
2023-03-04T03:04:22.683Z,59.10
2023-03-04T03:06:50.180Z,65.20
2023-03-04T03:09:17.996Z,59.40
2023-03-04T03:11:45.353Z,59.13
2023-03-04T03:14:12.863Z,58.53
2023-03-04T03:16:40.263Z,65.57
2023-03-04T03:19:07.868Z,59.37
2023-03-04T03:21:35.219Z,54.57
2023-03-04T03:24:02.483Z,59.70
2023-03-04T03:26:29.826Z,63.10
2023-03-04T03:28:57.163Z,60.73
2023-03-04T03:31:24.525Z,64.40
2023-03-04T03:33:51.830Z,67.70
2023-03-04T03:36:19.148Z,58.90
2023-03-04T03:38:46.465Z,62.13
2023-03-04T03:41:13.831Z,65.17
2023-03-04T03:43:41.670Z,63.80
2023-03-04T03:46:09.058Z,63.30
2023-03-04T03:48:36.446Z,72.20
2023-03-04T03:51:03.934Z,62.47
2023-03-04T03:53:31.215Z,64.13
2023-03-04T03:55:59.015Z,64.90
2023-03-04T03:58:26.825Z,59.37
2023-03-04T04:00:55.883Z,58.33
2023-03-04T04:03:23.290Z,57.97
2023-03-04T04:05:50.631Z,60.00
2023-03-04T04:08:18.426Z,64.37
2023-03-04T04:10:45.781Z,64.07
2023-03-04T04:13:13.125Z,61.47
2023-03-04T04:15:40.463Z,54.73
2023-03-04T04:18:07.812Z,55.53
2023-03-04T04:20:35.441Z,62.50
2023-03-04T04:23:03.140Z,55.00
2023-03-04T04:25:30.509Z,57.57
2023-03-04T04:27:57.813Z,62.23
2023-03-04T04:30:25.124Z,61.93
2023-03-04T04:32:52.514Z,66.20
2023-03-04T04:35:19.976Z,59.80
2023-03-04T04:37:47.328Z,62.43
2023-03-04T04:40:14.973Z,62.37
2023-03-04T04:42:42.393Z,71.30
2023-03-04T04:45:10.101Z,64.60
2023-03-04T04:47:37.493Z,61.80
2023-03-04T04:50:05.108Z,62.33
2023-03-04T04:52:32.438Z,61.80
2023-03-04T04:54:59.791Z,58.33
2023-03-04T04:57:27.122Z,56.33
2023-03-04T04:59:54.520Z,52.80
2023-03-04T05:02:21.839Z,56.03
2023-03-04T05:04:49.338Z,62.67
2023-03-04T05:07:16.671Z,52.33
2023-03-04T05:09:43.969Z,54.10
2023-03-04T05:12:11.315Z,58.20
2023-03-04T05:14:39.300Z,56.00
2023-03-04T05:17:06.611Z,55.40
2023-03-04T05:19:34.148Z,54.07
2023-03-04T05:22:01.484Z,50.47
2023-03-04T05:24:28.833Z,52.07
2023-03-04T05:26:56.150Z,44.50
2023-03-04T05:29:23.574Z,43.87
2023-03-04T05:31:51.168Z,45.17
2023-03-04T05:34:18.676Z,54.17
2023-03-04T05:36:46.054Z,44.43
2023-03-04T05:39:13.391Z,45.13
2023-03-04T05:41:40.714Z,46.50
2023-03-04T05:44:08.065Z,47.23
2023-03-04T05:46:35.883Z,48.17
2023-03-04T05:49:03.428Z,51.60
2023-03-04T05:51:30.684Z,45.47
2023-03-04T05:53:58.039Z,46.83
2023-03-04T05:56:25.359Z,46.83
2023-03-04T05:58:52.706Z,48.80
2023-03-04T06:01:20.046Z,48.93
2023-03-04T06:03:49.186Z,43.70
2023-03-04T06:06:16.578Z,48.67
2023-03-04T06:08:44.023Z,44.43
2023-03-04T06:11:11.358Z,46.30
2023-03-04T06:13:39.233Z,46.77
2023-03-04T06:16:06.746Z,42.87
2023-03-04T06:18:34.224Z,54.33
2023-03-04T06:21:03.004Z,48.17
2023-03-04T06:23:30.859Z,42.13
2023-03-04T06:25:58.942Z,42.20
2023-03-04T06:28:26.627Z,45.60
2023-03-04T06:30:54.193Z,42.33
2023-03-04T06:33:21.707Z,48.43
2023-03-04T06:35:49.111Z,40.43
2023-03-04T06:38:16.466Z,46.93
2023-03-04T06:40:45.692Z,43.50
2023-03-04T06:43:13.057Z,43.07
2023-03-04T06:45:40.452Z,46.03
2023-03-04T06:48:07.878Z,40.83
2023-03-04T06:50:35.235Z,42.60
2023-03-04T06:53:02.642Z,39.07
2023-03-04T06:55:30.144Z,39.63
2023-03-04T06:57:57.519Z,42.20
2023-03-04T07:00:24.945Z,34.90
2023-03-04T07:02:54.800Z,45.03
2023-03-04T07:05:21.463Z,39.60
2023-03-04T07:07:49.707Z,36.10
2023-03-04T07:10:18.124Z,37.57
2023-03-04T07:12:45.633Z,35.70
2023-03-04T07:15:13.006Z,36.40
2023-03-04T07:17:40.340Z,38.33
2023-03-04T07:20:07.936Z,40.27
2023-03-04T07:22:35.281Z,40.87
2023-03-04T07:25:02.632Z,37.50
2023-03-04T07:27:29.977Z,37.03
2023-03-04T07:29:57.405Z,36.47
2023-03-04T07:32:26.072Z,34.90
2023-03-04T07:34:53.441Z,34.73
2023-03-04T07:37:20.843Z,47.03
2023-03-04T07:39:48.194Z,43.37
2023-03-04T07:42:15.531Z,37.57
2023-03-04T07:44:42.891Z,37.20
2023-03-04T07:47:10.245Z,42.80
2023-03-04T07:49:37.607Z,36.10
2023-03-04T07:52:05.410Z,44.73
2023-03-04T07:54:33.046Z,44.63
2023-03-04T07:57:00.627Z,46.07
2023-03-04T07:59:28.121Z,44.10
2023-03-04T08:01:55.512Z,35.57
2023-03-04T08:04:22.919Z,37.83
2023-03-04T08:06:50.686Z,44.77
2023-03-04T08:09:18.034Z,44.27
2023-03-04T08:11:45.559Z,32.80
2023-03-04T08:14:14.633Z,33.47
2023-03-04T08:16:42.201Z,39.60
2023-03-04T08:19:09.529Z,33.00
2023-03-04T08:21:37.059Z,43.13
2023-03-04T08:24:06.617Z,32.33
2023-03-04T08:26:35.689Z,36.63
2023-03-04T08:29:04.502Z,32.13
2023-03-04T08:31:33.599Z,34.13
2023-03-04T08:34:02.392Z,34.17
2023-03-04T08:36:29.748Z,41.57
2023-03-04T08:38:57.105Z,38.47
2023-03-04T08:41:26.352Z,29.10
2023-03-04T08:43:54.216Z,32.80
2023-03-04T08:46:21.716Z,35.17
2023-03-04T08:48:49.058Z,27.90
2023-03-04T08:51:16.874Z,31.33
2023-03-04T08:53:44.779Z,30.50
2023-03-04T08:56:12.909Z,30.43
2023-03-04T08:58:40.626Z,34.13
2023-03-04T09:01:08.635Z,36.80
2023-03-04T09:03:36.025Z,36.23
2023-03-04T09:06:04.102Z,30.10
2023-03-04T09:08:31.778Z,38.03
2023-03-04T09:10:59.109Z,34.90
2023-03-04T09:13:26.942Z,35.00
2023-03-04T09:15:54.493Z,36.43
2023-03-04T09:18:22.776Z,30.50
2023-03-04T09:20:50.575Z,36.20
2023-03-04T09:23:18.318Z,35.57
2023-03-04T09:25:47.191Z,33.60
2023-03-04T09:28:15.015Z,36.27
2023-03-04T09:30:42.761Z,31.40
2023-03-04T09:33:10.399Z,29.43
2023-03-04T09:35:37.973Z,48.73
2023-03-04T09:38:05.637Z,27.07
2023-03-04T09:40:43.485Z,36.13
2023-03-04T09:43:15.382Z,34.00
2023-03-04T09:45:45.419Z,27.50
2023-03-04T09:48:14.313Z,26.33
2023-03-04T09:50:43.172Z,29.30
2023-03-04T09:53:17.980Z,34.93
2023-03-04T09:55:47.435Z,29.33
2023-03-04T09:58:25.354Z,28.87
2023-03-04T10:00:54.263Z,29.43
2023-03-04T10:03:23.217Z,25.70
2023-03-04T10:05:52.200Z,26.10
2023-03-04T10:08:33.226Z,23.90
2023-03-04T10:11:02.249Z,22.63
2023-03-04T10:13:33.821Z,23.47
2023-03-04T10:16:02.243Z,29.77
2023-03-04T10:18:31.093Z,28.80
2023-03-04T10:21:15.380Z,21.93
2023-03-04T10:23:43.107Z,25.27
2023-03-04T10:26:11.988Z,29.57
2023-03-04T10:28:39.802Z,27.10
2023-03-04T10:31:08.699Z,24.73
2023-03-04T10:33:37.189Z,28.17
2023-03-04T10:36:06.168Z,33.53
2023-03-04T10:38:34.974Z,24.40
2023-03-04T10:41:02.481Z,25.93
2023-03-04T10:43:30.479Z,25.80
2023-03-04T10:45:59.097Z,23.30
2023-03-04T10:48:28.047Z,20.80
2023-03-04T10:50:55.670Z,22.83
2023-03-04T10:53:24.536Z,23.12
2023-03-04T10:55:51.912Z,17.53
2023-03-04T10:58:19.386Z,25.13
2023-03-04T11:00:48.329Z,18.50
2023-03-04T11:03:30.297Z,20.30
2023-03-04T11:06:16.321Z,19.37
2023-03-04T11:08:43.945Z,19.67
2023-03-04T11:11:21.685Z,22.80
2023-03-04T11:13:59.745Z,19.10
2023-03-04T11:16:28.404Z,25.83
2023-03-04T11:19:06.257Z,20.27
2023-03-04T11:21:35.148Z,24.13
2023-03-04T11:24:04.409Z,18.30
2023-03-04T11:26:33.299Z,21.03
2023-03-04T11:29:02.164Z,20.13
2023-03-04T11:31:36.897Z,24.70
2023-03-04T11:34:13.633Z,20.20
2023-03-04T11:36:42.702Z,20.37
2023-03-04T11:39:14.483Z,21.67
2023-03-04T11:41:43.430Z,22.27
2023-03-04T11:44:12.300Z,21.80
2023-03-04T11:46:56.577Z,24.15
2023-03-04T11:49:25.700Z,21.13
2023-03-04T11:51:57.289Z,22.40
2023-03-04T11:54:37.984Z,17.50
2023-03-04T11:57:15.625Z,21.03
2023-03-04T11:59:56.415Z,20.07
2023-03-04T12:02:25.289Z,21.73
2023-03-04T12:05:03.180Z,20.60
2023-03-04T12:07:32.056Z,22.80
2023-03-04T12:10:00.997Z,23.60
2023-03-04T12:12:45.006Z,18.53
2023-03-04T12:15:19.634Z,24.13
2023-03-04T12:17:51.598Z,21.60
2023-03-04T12:20:23.412Z,19.43
2023-03-04T12:22:58.206Z,15.97
2023-03-04T12:25:32.804Z,15.27
2023-03-04T12:28:07.495Z,17.17
2023-03-04T12:30:36.371Z,17.43
2023-03-04T12:33:11.668Z,14.13
2023-03-04T12:35:49.382Z,17.27
2023-03-04T12:38:20.850Z,16.90
2023-03-04T12:40:52.726Z,17.13
2023-03-04T12:43:27.730Z,16.20
2023-03-04T12:46:13.436Z,13.37
2023-03-04T12:48:45.096Z,17.50
2023-03-04T12:51:20.047Z,13.60
2023-03-04T12:53:51.865Z,20.00
2023-03-04T12:56:37.466Z,15.30
2023-03-04T12:59:05.469Z,13.73
2023-03-04T13:01:34.332Z,16.07
2023-03-04T13:04:05.912Z,15.33
2023-03-04T13:06:40.505Z,18.30
2023-03-04T13:09:09.389Z,14.83
2023-03-04T13:11:41.633Z,22.03
2023-03-04T13:14:10.521Z,21.07
2023-03-04T13:16:42.260Z,15.70
2023-03-04T13:19:27.568Z,17.30
2023-03-04T13:21:55.218Z,14.90
2023-03-04T13:24:42.469Z,16.90
2023-03-04T13:27:27.799Z,14.47
2023-03-04T13:29:55.897Z,14.00
2023-03-04T13:32:24.844Z,16.73
2023-03-04T13:34:54.308Z,12.07
2023-03-04T13:37:25.835Z,14.90
2023-03-04T13:39:54.715Z,15.90
2023-03-04T13:42:41.906Z,19.03
2023-03-04T13:45:27.704Z,17.03
2023-03-04T13:47:55.020Z,17.33
2023-03-04T13:50:26.674Z,18.10
2023-03-04T13:52:55.438Z,19.40
2023-03-04T13:55:27.071Z,34.33
2023-03-04T13:57:54.514Z,20.07
2023-03-04T14:00:21.862Z,19.63
2023-03-04T14:02:49.204Z,24.47
2023-03-04T14:05:16.549Z,21.97
2023-03-04T14:07:43.896Z,20.93
2023-03-04T14:10:15.438Z,20.63
2023-03-04T14:12:47.208Z,19.27
2023-03-04T14:15:16.247Z,21.33
2023-03-04T14:17:47.977Z,23.80
2023-03-04T14:20:31.960Z,26.63
2023-03-04T14:23:00.448Z,20.40
2023-03-04T14:25:28.959Z,22.23
2023-03-04T14:28:03.838Z,25.53
2023-03-04T14:30:42.074Z,25.37
2023-03-04T14:33:01.141Z,19.37
2023-03-04T14:35:29.646Z,21.57
2023-03-04T14:37:58.582Z,28.00
2023-03-04T14:40:30.169Z,20.77
2023-03-04T14:42:59.332Z,25.73
2023-03-04T14:45:26.939Z,20.27
2023-03-04T14:47:55.447Z,18.73
2023-03-04T14:50:23.055Z,21.53
2023-03-04T14:52:53.999Z,25.90
2023-03-04T14:55:23.205Z,20.53
2023-03-04T14:57:53.855Z,21.50
2023-03-04T15:00:22.740Z,25.33
2023-03-04T15:02:54.374Z,23.73
2023-03-04T15:05:26.402Z,25.67
2023-03-04T15:07:53.409Z,23.00
2023-03-04T15:10:22.279Z,22.90
2023-03-04T15:12:56.638Z,21.60
2023-03-04T15:15:43.797Z,26.00
2023-03-04T15:18:18.710Z,23.20
2023-03-04T15:20:47.585Z,18.40
2023-03-04T15:23:14.924Z,21.70
2023-03-04T15:25:42.259Z,19.63
2023-03-04T15:28:11.172Z,22.60
2023-03-04T15:30:40.111Z,19.00
2023-03-04T15:33:08.977Z,19.70
2023-03-04T15:35:36.421Z,19.20
2023-03-04T15:38:05.289Z,20.87
2023-03-04T15:40:33.801Z,18.17
2023-03-04T15:43:02.321Z,18.80
2023-03-04T15:45:31.012Z,18.50
2023-03-04T15:47:58.615Z,17.90
2023-03-04T15:50:27.556Z,18.70
2023-03-04T15:52:56.445Z,19.60
2023-03-04T15:55:23.794Z,20.77
2023-03-04T15:57:52.668Z,19.60
2023-03-04T16:00:20.314Z,19.90
2023-03-04T16:02:48.658Z,20.37
2023-03-04T16:05:16.621Z,18.57
2023-03-04T16:07:45.529Z,18.90
2023-03-04T16:10:14.451Z,21.10
2023-03-04T16:12:41.988Z,21.47
2023-03-04T16:15:19.710Z,21.67
2023-03-04T16:17:47.395Z,19.53
2023-03-04T16:20:16.250Z,19.37
2023-03-04T16:22:44.398Z,20.90
2023-03-04T16:25:12.919Z,21.63
2023-03-04T16:27:40.869Z,18.47
2023-03-04T16:30:09.627Z,21.37
2023-03-04T16:32:36.999Z,19.67
2023-03-04T16:35:04.488Z,19.30
2023-03-04T16:37:31.853Z,20.57
2023-03-04T16:39:59.899Z,19.17
2023-03-04T16:42:27.235Z,21.03
2023-03-04T16:44:55.820Z,16.60
2023-03-04T16:47:23.163Z,19.40
2023-03-04T16:49:50.780Z,18.30
2023-03-04T16:52:22.956Z,18.63
2023-03-04T16:54:50.343Z,20.70
2023-03-04T16:57:17.699Z,19.50
2023-03-04T16:59:45.940Z,18.80
2023-03-04T17:02:20.772Z,20.93
2023-03-04T17:04:49.010Z,17.63
2023-03-04T17:07:17.174Z,17.33
2023-03-04T17:09:44.546Z,19.10
2023-03-04T17:12:13.109Z,19.23
2023-03-04T17:14:40.601Z,18.50
2023-03-04T17:17:08.781Z,16.40
2023-03-04T17:19:36.121Z,20.43
2023-03-04T17:22:03.749Z,18.50
2023-03-04T17:24:31.620Z,19.77
2023-03-04T17:26:58.961Z,18.70
2023-03-04T17:29:26.303Z,23.73
2023-03-04T17:31:53.653Z,20.40
2023-03-04T17:34:21.064Z,20.37
2023-03-04T17:36:48.424Z,21.00
2023-03-04T17:39:15.780Z,20.83
2023-03-04T17:41:43.100Z,21.10
2023-03-04T17:44:11.976Z,22.73
2023-03-04T17:46:39.432Z,21.63
2023-03-04T17:49:06.843Z,19.20
2023-03-04T17:51:36.131Z,20.67
2023-03-04T17:54:05.448Z,21.70
2023-03-04T17:56:33.245Z,20.20
2023-03-04T17:59:01.882Z,26.83
2023-03-04T18:01:29.244Z,24.07
2023-03-04T18:03:56.583Z,24.87
2023-03-04T18:06:25.142Z,18.33
2023-03-04T18:08:53.315Z,22.07
2023-03-04T18:11:22.251Z,24.03
2023-03-04T18:13:49.790Z,23.90
2023-03-04T18:16:19.193Z,19.67
2023-03-04T18:18:46.637Z,22.03
2023-03-04T18:21:14.014Z,25.05
2023-03-04T18:23:41.376Z,22.50
2023-03-04T18:26:08.701Z,20.03
2023-03-04T18:28:36.078Z,20.70
2023-03-04T18:31:03.970Z,20.50
2023-03-04T18:33:32.198Z,23.13
2023-03-04T18:36:03.463Z,22.57
2023-03-04T18:38:31.185Z,23.20
2023-03-04T18:40:59.787Z,19.63
2023-03-04T18:43:27.613Z,19.33
2023-03-04T18:46:05.536Z,23.73
2023-03-04T18:48:34.387Z,22.10
2023-03-04T18:51:01.718Z,22.73
2023-03-04T18:53:30.258Z,23.00
2023-03-04T18:56:00.899Z,23.10
2023-03-04T18:58:29.462Z,23.50
2023-03-04T19:00:57.377Z,18.00
2023-03-04T19:03:24.728Z,22.23
2023-03-04T19:05:52.065Z,23.63
2023-03-04T19:08:19.397Z,23.13
2023-03-04T19:10:46.742Z,21.63
2023-03-04T19:13:15.562Z,23.77
2023-03-04T19:15:42.892Z,22.67
2023-03-04T19:18:10.254Z,21.43
2023-03-04T19:20:40.293Z,25.83
2023-03-04T19:23:09.362Z,20.80
2023-03-04T19:25:40.058Z,21.83
2023-03-04T19:28:07.762Z,24.47
2023-03-04T19:30:36.684Z,23.80
2023-03-04T19:33:04.269Z,26.20
2023-03-04T19:35:33.461Z,20.40
2023-03-04T19:38:01.261Z,27.93
2023-03-04T19:40:28.851Z,21.87
2023-03-04T19:42:57.724Z,27.53
2023-03-04T19:45:25.454Z,29.33
2023-03-04T19:47:52.836Z,23.23
2023-03-04T19:50:20.183Z,23.10
2023-03-04T19:52:47.522Z,24.17
2023-03-04T19:55:14.860Z,22.60
2023-03-04T19:57:42.232Z,23.00
2023-03-04T20:00:10.909Z,20.47
2023-03-04T20:02:38.370Z,25.03
2023-03-04T20:05:06.284Z,21.60
2023-03-04T20:07:33.632Z,27.07
2023-03-04T20:10:01.030Z,27.23
2023-03-04T20:12:28.376Z,22.53
2023-03-04T20:14:55.735Z,22.90
2023-03-04T20:17:23.071Z,28.47
2023-03-04T20:19:50.408Z,23.30
2023-03-04T20:22:17.780Z,24.60
2023-03-04T20:24:45.103Z,26.13
2023-03-04T20:27:14.849Z,27.83
2023-03-04T20:29:42.193Z,30.23
2023-03-04T20:32:09.740Z,24.53
2023-03-04T20:34:37.069Z,28.83
2023-03-04T20:37:04.396Z,28.53
2023-03-04T20:39:31.730Z,27.57
2023-03-04T20:41:59.402Z,28.63
2023-03-04T20:44:26.871Z,28.07
2023-03-04T20:46:54.234Z,24.97
2023-03-04T20:49:23.747Z,23.60
2023-03-04T20:51:51.623Z,30.23
2023-03-04T20:54:19.127Z,25.07
2023-03-04T20:56:46.786Z,25.27
2023-03-04T20:59:14.140Z,25.83
2023-03-04T21:01:43.088Z,30.37
2023-03-04T21:04:10.502Z,27.43
2023-03-04T21:06:38.648Z,36.70
2023-03-04T21:09:07.474Z,26.70
2023-03-04T21:11:36.533Z,29.40
2023-03-04T21:14:03.864Z,30.20
2023-03-04T21:16:31.225Z,31.10
2023-03-04T21:18:59.758Z,29.47
2023-03-04T21:21:28.523Z,31.40
2023-03-04T21:23:56.434Z,27.17
2023-03-04T21:26:24.563Z,24.73
2023-03-04T21:28:52.849Z,30.83
2023-03-04T21:31:21.815Z,29.40
2023-03-04T21:33:49.294Z,33.67
2023-03-04T21:36:16.645Z,32.70
2023-03-04T21:38:44.592Z,30.33
2023-03-04T21:41:18.971Z,30.00
2023-03-04T21:43:46.385Z,27.17
2023-03-04T21:46:14.447Z,28.20
2023-03-04T21:48:46.926Z,32.93
2023-03-04T21:51:15.423Z,31.13
2023-03-04T21:53:43.259Z,30.80
2023-03-04T21:56:11.778Z,32.70
2023-03-04T21:58:42.149Z,29.70
2023-03-04T22:01:11.176Z,35.70
2023-03-04T22:03:38.671Z,28.80
2023-03-04T22:06:09.961Z,34.60
2023-03-04T22:08:37.704Z,30.10
2023-03-04T22:11:06.158Z,32.67
2023-03-04T22:13:33.979Z,28.07
2023-03-04T22:16:01.428Z,31.40
2023-03-04T22:18:28.745Z,30.43
2023-03-04T22:21:03.513Z,29.47
2023-03-04T22:23:31.026Z,28.50
2023-03-04T22:25:59.896Z,31.97
2023-03-04T22:28:28.336Z,27.07
2023-03-04T22:30:56.336Z,31.20
2023-03-04T22:33:24.472Z,27.40
2023-03-04T22:35:55.036Z,26.80
2023-03-04T22:38:22.908Z,26.57
2023-03-04T22:40:50.256Z,27.37
2023-03-04T22:43:17.609Z,28.80
2023-03-04T22:45:44.988Z,27.83
2023-03-04T22:48:14.232Z,29.53
2023-03-04T22:50:41.957Z,30.63
2023-03-04T22:53:09.298Z,25.93
2023-03-04T22:55:36.696Z,30.60
2023-03-04T22:58:04.433Z,27.87
2023-03-04T23:00:32.335Z,25.83
2023-03-04T23:02:59.743Z,27.20
2023-03-04T23:05:27.091Z,29.97
2023-03-04T23:07:54.433Z,27.10
2023-03-04T23:10:23.320Z,28.53
2023-03-04T23:12:51.285Z,24.23
2023-03-04T23:15:19.317Z,26.33
2023-03-04T23:17:46.900Z,29.00
2023-03-04T23:20:15.516Z,26.17
2023-03-04T23:22:42.862Z,31.10
2023-03-04T23:25:10.470Z,30.37
2023-03-04T23:27:38.499Z,30.33
2023-03-04T23:30:07.247Z,28.67
2023-03-04T23:32:34.559Z,26.37
2023-03-04T23:35:02.444Z,28.37
2023-03-04T23:37:29.822Z,27.03
2023-03-04T23:39:57.170Z,28.30
2023-03-04T23:42:24.528Z,28.60
2023-03-04T23:44:51.875Z,35.70
2023-03-04T23:47:19.244Z,28.60
2023-03-04T23:49:46.575Z,30.10
2023-03-04T23:52:13.938Z,26.53
2023-03-04T23:54:41.268Z,28.17
2023-03-04T23:57:09.362Z,25.50
2023-03-04T23:59:38.384Z,31.33
